createdAt,value
2017-05-09T00:00:05.463Z,22.72
2017-05-09T00:01:05.475Z,22.68
2017-05-09T00:02:05.447Z,22.72
2017-05-09T00:03:05.533Z,22.76
2017-05-09T00:04:05.561Z,22.65
2017-05-09T00:05:05.588Z,22.68
2017-05-09T00:06:05.615Z,22.7
2017-05-09T00:07:05.896Z,22.7
2017-05-09T00:08:05.351Z,22.62
2017-05-09T00:09:05.698Z,22.7
2017-05-09T00:10:05.415Z,22.65
2017-05-09T00:11:05.439Z,22.76
2017-05-09T00:12:06.035Z,22.68
2017-05-09T00:13:05.493Z,22.62
2017-05-09T00:14:05.837Z,22.75
2017-05-09T00:15:05.594Z,22.61
2017-05-09T00:16:05.891Z,22.64
2017-05-09T00:17:06.165Z,22.64
2017-05-09T00:18:05.623Z,22.62
2017-05-09T00:19:05.961Z,22.6
2017-05-09T00:20:05.995Z,22.65
2017-05-09T00:21:05.715Z,22.65
2017-05-09T00:22:06.053Z,22.64
2017-05-09T00:23:05.764Z,22.64
2017-05-09T00:24:06.107Z,22.57
2017-05-09T00:25:06.131Z,22.65
2017-05-09T00:26:05.850Z,22.68
2017-05-09T00:27:05.873Z,22.61
2017-05-09T00:28:06.217Z,22.62
2017-05-09T00:29:06.238Z,22.61
2017-05-09T00:30:06.269Z,22.64
2017-05-09T00:31:06.299Z,22.61
2017-05-09T00:32:06.008Z,22.61
2017-05-09T00:33:06.037Z,22.6
2017-05-09T00:34:06.064Z,22.67
2017-05-09T00:35:05.775Z,22.58
2017-05-09T00:36:06.118Z,22.57
2017-05-09T00:37:06.460Z,22.61
2017-05-09T00:38:06.493Z,22.61
2017-05-09T00:39:06.510Z,22.62
2017-05-09T00:40:06.223Z,22.61
2017-05-09T00:41:06.563Z,22.61
2017-05-09T00:42:06.592Z,22.58
2017-05-09T00:43:06.617Z,22.64
2017-05-09T00:44:06.645Z,22.52
2017-05-09T00:45:06.359Z,22.58
2017-05-09T00:46:06.702Z,22.47
2017-05-09T00:47:06.731Z,22.52
2017-05-09T00:48:06.763Z,22.64
2017-05-09T00:49:06.465Z,22.57
2017-05-09T00:50:06.798Z,22.49
2017-05-09T00:51:06.518Z,22.46
2017-05-09T00:52:06.859Z,22.49
2017-05-09T00:53:06.884Z,22.52
2017-05-09T00:54:06.913Z,22.54
2017-05-09T00:55:06.934Z,22.51
2017-05-09T00:56:06.351Z,22.52
2017-05-09T00:57:06.375Z,22.49
2017-05-09T00:58:07.263Z,22.54
2017-05-09T00:59:07.045Z,22.52
2017-05-09T01:00:07.068Z,22.49
2017-05-09T01:01:06.792Z,22.51
2017-05-09T01:02:06.811Z,22.58
2017-05-09T01:03:07.400Z,22.46
2017-05-09T01:04:06.868Z,22.45
2017-05-09T01:05:06.902Z,22.52
2017-05-09T01:06:06.926Z,22.43
2017-05-09T01:07:07.267Z,22.43
2017-05-09T01:08:07.548Z,22.47
2017-05-09T01:09:06.692Z,22.47
2017-05-09T01:10:07.348Z,22.47
2017-05-09T01:11:07.370Z,22.43
2017-05-09T01:12:06.774Z,22.4
2017-05-09T01:13:07.680Z,22.45
2017-05-09T01:14:07.449Z,22.37
2017-05-09T01:15:06.856Z,22.46
2017-05-09T01:16:07.501Z,22.33
2017-05-09T01:17:07.222Z,22.36
2017-05-09T01:18:07.499Z,22.42
2017-05-09T01:19:07.587Z,22.46
2017-05-09T01:20:07.301Z,22.37
2017-05-09T01:21:07.632Z,22.4
2017-05-09T01:22:07.668Z,22.4
2017-05-09T01:23:07.948Z,22.36
2017-05-09T01:24:07.408Z,22.4
2017-05-09T01:25:07.747Z,22.46
2017-05-09T01:26:07.146Z,22.4
2017-05-09T01:27:07.802Z,22.35
2017-05-09T01:28:08.083Z,22.36
2017-05-09T01:29:07.864Z,22.4
2017-05-09T01:30:07.875Z,22.42
2017-05-09T01:31:07.594Z,22.39
2017-05-09T01:32:07.303Z,22.4
2017-05-09T01:33:07.899Z,22.35
2017-05-09T01:34:07.988Z,22.36
2017-05-09T01:35:07.699Z,22.36
2017-05-09T01:36:08.041Z,22.36
2017-05-09T01:37:07.749Z,22.27
2017-05-09T01:38:08.031Z,22.35
2017-05-09T01:39:08.128Z,22.35
2017-05-09T01:40:07.837Z,22.39
2017-05-09T01:41:08.181Z,22.3
2017-05-09T01:42:08.210Z,22.27
2017-05-09T01:43:08.482Z,22.24
2017-05-09T01:44:07.944Z,22.28
2017-05-09T01:45:07.977Z,22.25
2017-05-09T01:46:07.997Z,22.3
2017-05-09T01:47:08.026Z,22.24
2017-05-09T01:48:08.308Z,22.24
2017-05-09T01:49:08.401Z,22.25
2017-05-09T01:50:08.417Z,22.27
2017-05-09T01:51:08.128Z,22.24
2017-05-09T01:52:08.470Z,22.21
2017-05-09T01:53:08.750Z,22.24
2017-05-09T01:54:08.528Z,22.3
2017-05-09T01:55:08.548Z,22.35
2017-05-09T01:56:08.269Z,22.3
2017-05-09T01:57:08.609Z,22.28
2017-05-09T01:58:08.886Z,22.3
2017-05-09T01:59:08.350Z,22.27
2017-05-09T02:00:08.375Z,22.3
2017-05-09T02:01:08.722Z,22.27
2017-05-09T02:02:08.115Z,22.3
2017-05-09T02:03:09.023Z,22.21
2017-05-09T02:04:08.175Z,22.22
2017-05-09T02:05:08.507Z,22.24
2017-05-09T02:06:08.852Z,22.21
2017-05-09T02:07:08.874Z,22.28
2017-05-09T02:08:08.839Z,22.21
2017-05-09T02:09:08.616Z,22.25
2017-05-09T02:10:08.639Z,22.21
2017-05-09T02:11:08.981Z,22.22
2017-05-09T02:12:08.694Z,22.21
2017-05-09T02:13:09.282Z,22.2
2017-05-09T02:14:09.063Z,22.22
2017-05-09T02:15:09.088Z,22.21
2017-05-09T02:16:09.116Z,22.22
2017-05-09T02:17:08.829Z,22.2
2017-05-09T02:18:08.854Z,22.14
2017-05-09T02:19:09.191Z,22.18
2017-05-09T02:20:08.912Z,22.21
2017-05-09T02:21:09.245Z,22.15
2017-05-09T02:22:08.970Z,22.12
2017-05-09T02:23:09.304Z,22.17
2017-05-09T02:24:09.340Z,22.1
2017-05-09T02:25:09.356Z,22.14
2017-05-09T02:26:09.388Z,22.17
2017-05-09T02:27:09.409Z,22.1
2017-05-09T02:28:09.443Z,22.1
2017-05-09T02:29:09.455Z,22.07
2017-05-09T02:30:09.179Z,22.14
2017-05-09T02:31:09.205Z,22.15
2017-05-09T02:32:09.540Z,22.07
2017-05-09T02:33:09.572Z,22.15
2017-05-09T02:34:09.279Z,22.17
2017-05-09T02:35:09.629Z,22.14
2017-05-09T02:36:09.651Z,22.12
2017-05-09T02:37:09.681Z,22.15
2017-05-09T02:38:09.709Z,22.12
2017-05-09T02:39:09.726Z,22.14
2017-05-09T02:40:09.755Z,22
2017-05-09T02:41:09.471Z,22.15
2017-05-09T02:42:09.813Z,22.14
2017-05-09T02:43:09.521Z,22.09
2017-05-09T02:44:09.867Z,22.14
2017-05-09T02:45:09.576Z,22.09
2017-05-09T02:46:09.916Z,22.05
2017-05-09T02:47:09.940Z,22.07
2017-05-09T02:48:09.969Z,22.06
2017-05-09T02:49:09.998Z,22.02
2017-05-09T02:50:09.713Z,22.05
2017-05-09T02:51:09.743Z,21.99
2017-05-09T02:52:10.082Z,22.06
2017-05-09T02:53:10.100Z,22.06
2017-05-09T02:54:09.815Z,22.02
2017-05-09T02:55:10.154Z,21.98
2017-05-09T02:56:10.182Z,22.03
2017-05-09T02:57:09.900Z,22.06
2017-05-09T02:58:10.241Z,22
2017-05-09T02:59:10.517Z,22.05
2017-05-09T03:00:09.974Z,22.05
2017-05-09T03:01:09.696Z,22.05
2017-05-09T03:02:10.036Z,22.05
2017-05-09T03:03:10.371Z,22
2017-05-09T03:04:10.334Z,22.05
2017-05-09T03:05:10.426Z,22.06
2017-05-09T03:06:10.447Z,22
2017-05-09T03:07:10.164Z,22.09
2017-05-09T03:08:10.186Z,22.05
2017-05-09T03:09:10.783Z,22.02
2017-05-09T03:10:10.559Z,22.07
2017-05-09T03:11:10.579Z,22.06
2017-05-09T03:12:10.612Z,22.03
2017-05-09T03:13:10.645Z,21.99
2017-05-09T03:14:10.911Z,21.9
2017-05-09T03:15:10.686Z,21.9
2017-05-09T03:16:10.399Z,22
2017-05-09T03:17:10.432Z,21.92
2017-05-09T03:18:10.770Z,21.84
2017-05-09T03:19:11.043Z,21.88
2017-05-09T03:20:10.517Z,21.92
2017-05-09T03:21:10.847Z,21.94
2017-05-09T03:22:10.873Z,21.92
2017-05-09T03:23:10.905Z,21.82
2017-05-09T03:24:11.182Z,21.9
2017-05-09T03:25:10.959Z,21.91
2017-05-09T03:26:10.984Z,21.94
2017-05-09T03:27:10.696Z,21.9
2017-05-09T03:28:10.744Z,21.98
2017-05-09T03:29:11.010Z,21.94
2017-05-09T03:30:11.091Z,21.92
2017-05-09T03:31:10.802Z,21.79
2017-05-09T03:32:11.135Z,21.92
2017-05-09T03:33:11.181Z,21.94
2017-05-09T03:34:11.131Z,21.88
2017-05-09T03:35:11.221Z,21.79
2017-05-09T03:36:11.246Z,21.86
2017-05-09T03:37:10.963Z,21.9
2017-05-09T03:38:10.988Z,21.83
2017-05-09T03:39:11.266Z,21.84
2017-05-09T03:40:11.354Z,21.88
2017-05-09T03:41:11.065Z,21.86
2017-05-09T03:42:11.411Z,21.86
2017-05-09T03:43:10.804Z,21.88
2017-05-09T03:44:11.399Z,21.75
2017-05-09T03:45:11.175Z,21.88
2017-05-09T03:46:11.198Z,21.77
2017-05-09T03:47:11.539Z,21.91
2017-05-09T03:48:11.555Z,21.91
2017-05-09T03:49:11.844Z,21.74
2017-05-09T03:50:11.310Z,21.79
2017-05-09T03:51:11.331Z,21.86
2017-05-09T03:52:11.674Z,21.86
2017-05-09T03:53:11.380Z,21.9
2017-05-09T03:54:11.664Z,21.79
2017-05-09T03:55:11.442Z,21.88
2017-05-09T03:56:11.466Z,21.86
2017-05-09T03:57:11.488Z,21.79
2017-05-09T03:58:11.833Z,21.84
2017-05-09T03:59:11.488Z,21.88
2017-05-09T04:00:11.890Z,21.83
2017-05-09T04:01:11.602Z,21.86
2017-05-09T04:02:11.939Z,21.86
2017-05-09T04:03:11.336Z,21.77
2017-05-09T04:04:12.243Z,21.84
2017-05-09T04:05:12.016Z,21.84
2017-05-09T04:06:11.729Z,21.83
2017-05-09T04:07:12.066Z,21.8
2017-05-09T04:08:12.103Z,21.75
2017-05-09T04:09:11.804Z,21.84
2017-05-09T04:10:11.840Z,21.8
2017-05-09T04:11:11.861Z,21.77
2017-05-09T04:12:12.202Z,21.77
2017-05-09T04:13:12.219Z,21.82
2017-05-09T04:14:11.630Z,21.83
2017-05-09T04:15:11.969Z,21.77
2017-05-09T04:16:12.298Z,21.72
2017-05-09T04:17:12.018Z,21.77
2017-05-09T04:18:12.046Z,21.71
2017-05-09T04:19:12.385Z,21.74
2017-05-09T04:20:12.417Z,21.77
2017-05-09T04:21:12.442Z,21.71
2017-05-09T04:22:12.467Z,21.75
2017-05-09T04:23:12.491Z,21.8
2017-05-09T04:24:12.215Z,21.74
2017-05-09T04:25:12.174Z,21.72
2017-05-09T04:26:12.601Z,21.74
2017-05-09T04:27:12.286Z,21.75
2017-05-09T04:28:12.630Z,21.79
2017-05-09T04:29:12.650Z,21.77
2017-05-09T04:30:12.615Z,21.75
2017-05-09T04:31:12.392Z,21.83
2017-05-09T04:32:12.763Z,21.82
2017-05-09T04:33:12.755Z,21.79
2017-05-09T04:34:12.477Z,21.83
2017-05-09T04:35:13.064Z,21.8
2017-05-09T04:36:12.837Z,21.79
2017-05-09T04:37:12.866Z,21.9
2017-05-09T04:38:12.890Z,21.91
2017-05-09T04:39:12.915Z,21.83
2017-05-09T04:40:13.192Z,21.83
2017-05-09T04:41:12.653Z,21.98
2017-05-09T04:42:12.361Z,21.9
2017-05-09T04:43:12.707Z,21.91
2017-05-09T04:44:12.424Z,21.88
2017-05-09T04:45:13.328Z,21.96
2017-05-09T04:46:13.096Z,22.05
2017-05-09T04:47:13.126Z,22.1
2017-05-09T04:48:13.157Z,22.07
2017-05-09T04:49:12.859Z,22.07
2017-05-09T04:50:13.455Z,22.03
2017-05-09T04:51:13.232Z,22.07
2017-05-09T04:52:12.942Z,22.14
2017-05-09T04:53:13.287Z,22.12
2017-05-09T04:54:13.319Z,22.1
2017-05-09T04:55:13.589Z,22.2
2017-05-09T04:56:13.053Z,22.18
2017-05-09T04:57:13.384Z,22.21
2017-05-09T04:58:12.794Z,22.25
2017-05-09T04:59:13.135Z,22.24
2017-05-09T05:00:13.723Z,22.28
2017-05-09T05:01:13.502Z,22.28
2017-05-09T05:02:13.527Z,22.28
2017-05-09T05:03:13.554Z,22.37
2017-05-09T05:04:13.587Z,22.35
2017-05-09T05:05:13.850Z,22.43
2017-05-09T05:06:13.632Z,22.39
2017-05-09T05:07:13.657Z,22.45
2017-05-09T05:08:13.366Z,22.4
2017-05-09T05:09:13.088Z,22.46
2017-05-09T05:10:13.672Z,22.51
2017-05-09T05:11:13.454Z,22.54
2017-05-09T05:12:13.785Z,22.52
2017-05-09T05:13:13.819Z,22.52
2017-05-09T05:14:13.530Z,22.46
2017-05-09T05:15:14.127Z,22.47
2017-05-09T05:16:13.901Z,22.58
2017-05-09T05:17:13.299Z,22.61
2017-05-09T05:18:13.943Z,22.47
2017-05-09T05:19:13.974Z,22.57
2017-05-09T05:20:14.257Z,22.58
2017-05-09T05:21:13.717Z,22.57
2017-05-09T05:22:13.741Z,22.6
2017-05-09T05:23:14.078Z,22.61
2017-05-09T05:24:14.111Z,22.61
2017-05-09T05:25:14.136Z,22.64
2017-05-09T05:26:13.848Z,22.68
2017-05-09T05:27:13.874Z,22.62
2017-05-09T05:28:13.911Z,22.67
2017-05-09T05:29:13.935Z,22.62
2017-05-09T05:30:13.958Z,22.61
2017-05-09T05:31:14.296Z,22.67
2017-05-09T05:32:13.698Z,22.7
2017-05-09T05:33:14.392Z,22.72
2017-05-09T05:34:14.379Z,22.73
2017-05-09T05:35:14.402Z,22.72
2017-05-09T05:36:13.808Z,22.65
2017-05-09T05:37:14.145Z,22.76
2017-05-09T05:38:14.175Z,22.77
2017-05-09T05:39:14.193Z,22.79
2017-05-09T05:40:14.540Z,22.77
2017-05-09T05:41:14.564Z,22.85
2017-05-09T05:42:14.593Z,22.85
2017-05-09T05:43:14.617Z,22.91
2017-05-09T05:44:14.335Z,22.88
2017-05-09T05:45:14.380Z,22.9
2017-05-09T05:46:14.381Z,22.83
2017-05-09T05:47:14.734Z,22.97
2017-05-09T05:48:14.755Z,23.04
2017-05-09T05:49:14.778Z,22.97
2017-05-09T05:50:14.804Z,23.05
2017-05-09T05:51:14.833Z,22.98
2017-05-09T05:52:14.545Z,23.05
2017-05-09T05:53:14.897Z,23.04
2017-05-09T05:54:14.911Z,23.05
2017-05-09T05:55:14.943Z,23.05
2017-05-09T05:56:14.964Z,23.12
2017-05-09T05:57:14.992Z,23.09
2017-05-09T05:58:15.024Z,23.19
2017-05-09T05:59:15.054Z,23.22
2017-05-09T06:00:14.787Z,23.19
2017-05-09T06:01:15.099Z,23.13
2017-05-09T06:02:15.133Z,23.17
2017-05-09T06:03:15.158Z,23.23
2017-05-09T06:04:15.187Z,23.28
2017-05-09T06:05:15.215Z,23.23
2017-05-09T06:06:14.928Z,23.25
2017-05-09T06:07:15.272Z,23.31
2017-05-09T06:08:14.977Z,23.31
2017-05-09T06:09:15.322Z,23.28
2017-05-09T06:10:15.334Z,23.32
2017-05-09T06:11:15.627Z,23.35
2017-05-09T06:12:15.097Z,23.28
2017-05-09T06:13:15.441Z,23.32
2017-05-09T06:14:15.458Z,23.43
2017-05-09T06:15:15.170Z,23.4
2017-05-09T06:16:15.450Z,23.39
2017-05-09T06:17:15.546Z,23.42
2017-05-09T06:18:15.569Z,23.47
2017-05-09T06:19:15.277Z,23.38
2017-05-09T06:20:15.615Z,23.38
2017-05-09T06:21:15.583Z,23.39
2017-05-09T06:22:15.673Z,23.4
2017-05-09T06:23:15.401Z,23.53
2017-05-09T06:24:15.725Z,23.48
2017-05-09T06:25:15.443Z,23.51
2017-05-09T06:26:15.716Z,23.47
2017-05-09T06:27:15.813Z,23.47
2017-05-09T06:28:15.838Z,23.51
2017-05-09T06:29:15.872Z,23.46
2017-05-09T06:30:15.890Z,23.5
2017-05-09T06:31:15.861Z,23.47
2017-05-09T06:32:15.945Z,23.4
2017-05-09T06:33:15.704Z,23.43
2017-05-09T06:34:15.692Z,23.42
2017-05-09T06:35:16.030Z,23.38
2017-05-09T06:36:16.032Z,23.38
2017-05-09T06:37:16.084Z,23.39
2017-05-09T06:38:16.106Z,23.42
2017-05-09T06:39:16.136Z,23.38
2017-05-09T06:40:15.846Z,23.46
2017-05-09T06:41:16.443Z,23.46
2017-05-09T06:42:16.220Z,23.39
2017-05-09T06:43:16.244Z,23.4
2017-05-09T06:44:16.274Z,23.39
2017-05-09T06:45:15.987Z,23.42
2017-05-09T06:46:15.948Z,23.39
2017-05-09T06:47:16.354Z,23.33
2017-05-09T06:48:16.384Z,23.36
2017-05-09T06:49:16.410Z,23.39
2017-05-09T06:50:16.466Z,23.35
2017-05-09T06:51:16.715Z,23.33
2017-05-09T06:52:16.491Z,23.35
2017-05-09T06:53:16.520Z,23.36
2017-05-09T06:54:16.545Z,23.42
2017-05-09T06:55:16.581Z,23.33
2017-05-09T06:56:16.542Z,23.42
2017-05-09T06:57:16.636Z,23.36
2017-05-09T06:58:16.347Z,23.38
2017-05-09T06:59:16.376Z,23.36
2017-05-09T07:00:16.761Z,23.35
2017-05-09T07:01:16.982Z,23.39
2017-05-09T07:02:16.772Z,23.32
2017-05-09T07:03:16.484Z,23.36
2017-05-09T07:04:16.513Z,23.31
2017-05-09T07:05:16.841Z,23.31
2017-05-09T07:06:17.114Z,23.38
2017-05-09T07:07:16.903Z,23.28
2017-05-09T07:08:16.925Z,23.32
2017-05-09T07:09:16.644Z,23.28
2017-05-09T07:10:16.993Z,23.36
2017-05-09T07:11:17.257Z,23.36
2017-05-09T07:12:16.762Z,23.31
2017-05-09T07:13:17.063Z,23.35
2017-05-09T07:14:17.092Z,23.31
2017-05-09T07:15:17.121Z,23.33
2017-05-09T07:16:17.142Z,23.27
2017-05-09T07:17:16.859Z,23.33
2017-05-09T07:18:17.207Z,23.33
2017-05-09T07:19:17.229Z,23.36
2017-05-09T07:20:16.945Z,23.31
2017-05-09T07:21:17.283Z,23.38
2017-05-09T07:22:16.999Z,23.35
2017-05-09T07:23:17.024Z,23.35
2017-05-09T07:24:17.375Z,23.38
2017-05-09T07:25:17.398Z,23.36
2017-05-09T07:26:17.414Z,23.33
2017-05-09T07:27:17.139Z,23.32
2017-05-09T07:28:17.163Z,23.36
2017-05-09T07:29:17.504Z,23.23
2017-05-09T07:30:17.529Z,23.27
2017-05-09T07:31:17.553Z,23.27
2017-05-09T07:32:17.275Z,23.31
2017-05-09T07:33:17.302Z,23.22
2017-05-09T07:34:17.328Z,23.25
2017-05-09T07:35:17.664Z,23.28
2017-05-09T07:36:17.688Z,23.28
2017-05-09T07:37:17.754Z,23.25
2017-05-09T07:38:17.431Z,23.23
2017-05-09T07:39:17.463Z,23.17
2017-05-09T07:40:17.805Z,23.17
2017-05-09T07:41:17.842Z,23.23
2017-05-09T07:42:17.858Z,23.23
2017-05-09T07:43:17.889Z,23.19
2017-05-09T07:44:17.907Z,23.27
2017-05-09T07:45:17.940Z,23.23
2017-05-09T07:46:17.968Z,23.22
2017-05-09T07:47:17.683Z,23.28
2017-05-09T07:48:17.711Z,23.27
2017-05-09T07:49:18.088Z,23.13
2017-05-09T07:50:17.764Z,23.2
2017-05-09T07:51:18.103Z,23.23
2017-05-09T07:52:18.134Z,23.22
2017-05-09T07:53:18.162Z,23.22
2017-05-09T07:54:18.188Z,23.22
2017-05-09T07:55:18.221Z,23.23
2017-05-09T07:56:18.237Z,23.17
2017-05-09T07:57:18.522Z,23.17
2017-05-09T07:58:18.301Z,23.2
2017-05-09T07:59:18.326Z,23.13
2017-05-09T08:00:18.033Z,23.17
2017-05-09T08:01:18.377Z,23.13
2017-05-09T08:02:18.661Z,23.19
2017-05-09T08:03:18.434Z,23.17
2017-05-09T08:04:18.148Z,23.2
2017-05-09T08:05:18.499Z,23.15
2017-05-09T08:06:18.517Z,23.15
2017-05-09T08:07:18.792Z,23.2
2017-05-09T08:08:18.259Z,23.13
2017-05-09T08:09:18.288Z,23.17
2017-05-09T08:10:18.623Z,23.22
2017-05-09T08:11:18.652Z,23.23
2017-05-09T08:12:18.929Z,23.17
2017-05-09T08:13:18.700Z,23.16
2017-05-09T08:14:18.431Z,23.27
2017-05-09T08:15:18.442Z,23.15
2017-05-09T08:16:18.476Z,23.22
2017-05-09T08:17:19.061Z,23.2
2017-05-09T08:18:18.848Z,23.25
2017-05-09T08:19:18.887Z,23.23
2017-05-09T08:20:18.898Z,23.23
2017-05-09T08:21:18.923Z,23.22
2017-05-09T08:22:19.201Z,23.2
2017-05-09T08:23:18.984Z,23.22
2017-05-09T08:24:19.007Z,23.2
2017-05-09T08:25:19.030Z,23.27
2017-05-09T08:26:19.063Z,23.23
2017-05-09T08:27:19.028Z,23.13
2017-05-09T08:28:19.116Z,23.23
2017-05-09T08:29:19.142Z,23.17
2017-05-09T08:30:18.858Z,23.22
2017-05-09T08:31:19.237Z,23.22
2017-05-09T08:32:19.169Z,23.23
2017-05-09T08:33:19.253Z,23.15
2017-05-09T08:34:19.290Z,23.16
2017-05-09T08:35:19.314Z,23.17
2017-05-09T08:36:19.333Z,23.19
2017-05-09T08:37:19.304Z,23.22
2017-05-09T08:38:19.390Z,23.17
2017-05-09T08:39:19.415Z,23.16
2017-05-09T08:40:19.442Z,23.17
2017-05-09T08:41:19.471Z,23.17
2017-05-09T08:42:19.757Z,23.15
2017-05-09T08:43:19.532Z,23.22
2017-05-09T08:44:19.554Z,23.2
2017-05-09T08:45:18.962Z,23.15
2017-05-09T08:46:19.609Z,23.19
2017-05-09T08:47:19.578Z,23.17
2017-05-09T08:48:19.349Z,23.16
2017-05-09T08:49:19.694Z,23.15
2017-05-09T08:50:19.714Z,23.13
2017-05-09T08:51:19.743Z,23.16
2017-05-09T08:52:20.027Z,23.17
2017-05-09T08:53:19.493Z,23.17
2017-05-09T08:54:19.825Z,23.05
2017-05-09T08:55:19.861Z,23.13
2017-05-09T08:56:19.882Z,23.09
2017-05-09T08:57:20.164Z,23.09
2017-05-09T08:58:19.943Z,23.15
2017-05-09T08:59:19.965Z,23.04
2017-05-09T09:00:19.994Z,23.05
2017-05-09T09:01:20.022Z,23.1
2017-05-09T09:02:20.299Z,23.09
2017-05-09T09:03:19.760Z,23.07
2017-05-09T09:04:19.792Z,23.05
2017-05-09T09:05:20.134Z,23.07
2017-05-09T09:06:20.158Z,23.09
2017-05-09T09:07:20.183Z,23.1
2017-05-09T09:08:20.199Z,23.15
2017-05-09T09:09:20.241Z,23.05
2017-05-09T09:10:19.957Z,23.07
2017-05-09T09:11:19.982Z,23.04
2017-05-09T09:12:20.328Z,23.12
2017-05-09T09:13:20.355Z,23.05
2017-05-09T09:14:20.373Z,23.09
2017-05-09T09:15:20.410Z,23.13
2017-05-09T09:16:20.434Z,23.15
2017-05-09T09:17:20.458Z,23.16
2017-05-09T09:18:20.492Z,23.22
2017-05-09T09:19:20.517Z,23.16
2017-05-09T09:20:20.551Z,23.12
2017-05-09T09:21:20.575Z,23.16
2017-05-09T09:22:20.598Z,23.16
2017-05-09T09:23:20.623Z,23.05
2017-05-09T09:24:20.362Z,23.13
2017-05-09T09:25:20.680Z,23.07
2017-05-09T09:26:20.706Z,23.16
2017-05-09T09:27:20.735Z,23.13
2017-05-09T09:28:20.139Z,23.12
2017-05-09T09:29:20.165Z,23.1
2017-05-09T09:30:21.045Z,23.12
2017-05-09T09:31:20.842Z,23.12
2017-05-09T09:32:20.798Z,23.16
2017-05-09T09:33:20.892Z,23.15
2017-05-09T09:34:20.928Z,23.19
2017-05-09T09:35:20.974Z,23.2
2017-05-09T09:36:35.610Z,23.15
2017-05-09T09:37:35.847Z,23.13
2017-05-09T09:38:21.504Z,23.23
2017-05-09T09:39:21.312Z,23.13
2017-05-09T09:40:21.346Z,23.17
2017-05-09T09:41:21.585Z,23.15
2017-05-09T09:42:21.439Z,23.27
2017-05-09T09:43:21.668Z,23.19
2017-05-09T09:45:21.474Z,23.22
2017-05-09T09:46:22.341Z,23.15
2017-05-09T09:47:21.507Z,23.27
2017-05-09T09:48:21.590Z,23.16
2017-05-09T09:49:21.589Z,23.17
2017-05-09T09:52:21.368Z,23.2
2017-05-09T09:53:36.719Z,23.12
2017-05-09T09:54:36.081Z,23.12
2017-05-09T09:55:36.089Z,23.16
2017-05-09T09:56:21.791Z,23.16
2017-05-09T09:57:21.441Z,23.15
2017-05-09T09:58:22.216Z,23.19
2017-05-09T09:59:36.687Z,23.17
2017-05-09T10:00:22.136Z,23.19
2017-05-09T10:01:21.683Z,23.13
2017-05-09T10:02:21.706Z,23.12
2017-05-09T10:03:21.723Z,23.17
2017-05-09T10:04:21.751Z,23.19
2017-05-09T10:06:36.077Z,23.16
2017-05-09T10:07:21.830Z,23.16
2017-05-09T10:08:21.857Z,23.19
2017-05-09T10:09:21.887Z,23.16
2017-05-09T10:10:22.167Z,23.23
2017-05-09T10:11:21.632Z,23.22
2017-05-09T10:12:21.657Z,23.22
2017-05-09T10:13:21.703Z,23.2
2017-05-09T10:14:22.035Z,23.19
2017-05-09T10:15:22.307Z,23.22
2017-05-09T10:16:22.086Z,23.23
2017-05-09T10:17:22.111Z,23.25
2017-05-09T10:18:22.133Z,23.22
2017-05-09T10:19:21.855Z,23.31
2017-05-09T10:20:22.451Z,23.39
2017-05-09T10:21:21.911Z,23.38
2017-05-09T10:23:22.273Z,23.27
2017-05-09T10:25:22.873Z,23.33
2017-05-09T10:26:22.386Z,23.32
2017-05-09T10:27:37.218Z,23.33
2017-05-09T10:28:22.409Z,23.33
2017-05-09T10:29:22.446Z,23.27
2017-05-09T10:30:22.951Z,23.23
2017-05-09T10:31:22.524Z,23.23
2017-05-09T10:32:22.527Z,23.27
2017-05-09T10:33:21.933Z,23.28
2017-05-09T10:34:22.586Z,23.25
2017-05-09T10:35:22.858Z,23.22
2017-05-09T10:36:22.635Z,23.33
2017-05-09T10:37:22.349Z,23.32
2017-05-09T10:38:22.381Z,23.32
2017-05-09T10:39:22.403Z,23.32
2017-05-09T10:40:23.002Z,23.36
2017-05-09T10:41:22.770Z,23.33
2017-05-09T10:42:22.487Z,23.36
2017-05-09T10:43:22.825Z,23.47
2017-05-09T10:44:22.862Z,23.43
2017-05-09T10:45:23.139Z,23.53
2017-05-09T10:46:22.603Z,23.48
2017-05-09T10:47:22.945Z,23.5
2017-05-09T10:48:22.654Z,23.42
2017-05-09T10:49:22.690Z,23.43
2017-05-09T10:50:23.274Z,23.51
2017-05-09T10:51:22.735Z,23.46
2017-05-09T10:52:22.768Z,23.5
2017-05-09T10:53:22.797Z,23.53
2017-05-09T10:54:22.822Z,23.48
2017-05-09T10:55:23.414Z,23.57
2017-05-09T10:56:23.190Z,23.46
2017-05-09T10:57:23.220Z,23.47
2017-05-09T10:58:22.616Z,23.48
2017-05-09T10:59:23.268Z,23.57
2017-05-09T11:00:23.552Z,23.55
2017-05-09T11:01:23.015Z,23.61
2017-05-09T11:02:22.735Z,23.57
2017-05-09T11:03:23.067Z,23.55
2017-05-09T11:04:23.412Z,23.55
2017-05-09T11:05:23.386Z,23.55
2017-05-09T11:06:23.462Z,23.6
2017-05-09T11:07:23.492Z,23.65
2017-05-09T11:08:23.208Z,23.63
2017-05-09T11:09:22.928Z,23.63
2017-05-09T11:10:23.833Z,23.66
2017-05-09T11:11:23.605Z,23.69
2017-05-09T11:12:23.317Z,23.75
2017-05-09T11:13:23.654Z,23.73
2017-05-09T11:14:23.382Z,23.72
2017-05-09T11:15:23.968Z,23.75
2017-05-09T11:16:23.764Z,23.75
2017-05-09T11:17:23.462Z,23.78
2017-05-09T11:18:23.487Z,23.85
2017-05-09T11:19:23.823Z,23.87
2017-05-09T11:20:23.796Z,23.9
2017-05-09T11:21:23.577Z,23.85
2017-05-09T11:22:23.914Z,23.91
2017-05-09T11:23:23.938Z,23.93
2017-05-09T11:24:23.966Z,23.94
2017-05-09T11:25:24.243Z,23.95
2017-05-09T11:26:24.025Z,23.94
2017-05-09T11:27:24.054Z,23.97
2017-05-09T11:28:24.071Z,23.98
2017-05-09T11:29:23.808Z,24.06
2017-05-09T11:30:24.391Z,24.03
2017-05-09T11:31:23.851Z,24.13
2017-05-09T11:32:24.192Z,24.18
2017-05-09T11:33:24.227Z,24.27
2017-05-09T11:34:24.250Z,24.39
2017-05-09T11:35:24.278Z,24.37
2017-05-09T11:36:24.305Z,24.45
2017-05-09T11:37:24.331Z,24.49
2017-05-09T11:38:24.366Z,24.53
2017-05-09T11:39:24.391Z,24.61
2017-05-09T11:40:24.420Z,24.9
2017-05-09T11:41:24.447Z,25.02
2017-05-09T11:42:24.478Z,25.15
2017-05-09T11:43:24.494Z,25.38
2017-05-09T11:44:24.224Z,25.42
2017-05-09T11:45:24.280Z,25.46
2017-05-09T11:46:24.595Z,25.61
2017-05-09T11:47:24.308Z,25.76
2017-05-09T11:48:24.342Z,25.7
2017-05-09T11:49:24.682Z,25.75
2017-05-09T11:50:24.398Z,25.8
2017-05-09T11:51:24.431Z,25.88
2017-05-09T11:52:24.773Z,25.9
2017-05-09T11:53:24.807Z,26.01
2017-05-09T11:54:24.826Z,26.02
2017-05-09T11:55:24.547Z,26.17
2017-05-09T11:56:24.575Z,26.28
2017-05-09T11:57:24.920Z,26.45
2017-05-09T11:58:24.950Z,26.51
2017-05-09T11:59:24.974Z,26.67
2017-05-09T12:00:25.008Z,26.72
2017-05-09T12:01:25.039Z,26.82
2017-05-09T12:02:25.073Z,26.91
2017-05-09T12:03:25.097Z,26.99
2017-05-09T12:04:25.124Z,27.12
2017-05-09T12:05:25.151Z,27.09
2017-05-09T12:06:25.206Z,27.25
2017-05-09T12:07:25.225Z,27.25
2017-05-09T12:08:25.255Z,27.28
2017-05-09T12:09:25.286Z,27.24
2017-05-09T12:10:25.003Z,27.32
2017-05-09T12:11:25.348Z,27.24
2017-05-09T12:12:25.067Z,27.25
2017-05-09T12:13:25.087Z,27.31
2017-05-09T12:14:25.442Z,27.17
2017-05-09T12:15:25.166Z,27.12
2017-05-09T12:16:25.500Z,27.06
2017-05-09T12:17:25.524Z,26.95
2017-05-09T12:18:25.240Z,26.8
2017-05-09T12:19:25.590Z,26.72
2017-05-09T12:20:25.625Z,26.67
2017-05-09T12:21:25.026Z,26.5
2017-05-09T12:22:25.687Z,26.45
2017-05-09T12:23:25.712Z,26.35
2017-05-09T12:24:25.740Z,26.3
2017-05-09T12:25:25.457Z,26.09
2017-05-09T12:26:25.802Z,26.07
2017-05-09T12:27:25.824Z,26.13
2017-05-09T12:28:25.860Z,26.09
2017-05-09T12:29:25.584Z,26.01
2017-05-09T12:30:25.918Z,26.02
2017-05-09T12:31:25.638Z,26.02
2017-05-09T12:32:25.663Z,26.05
2017-05-09T12:33:26.019Z,26.07
2017-05-09T12:34:25.728Z,26.18
2017-05-09T12:35:26.068Z,26.37
2017-05-09T12:36:25.787Z,26.4
2017-05-09T12:37:25.503Z,26.65
2017-05-09T12:38:26.160Z,26.72
2017-05-09T12:39:26.196Z,26.99
2017-05-09T12:40:26.229Z,27.09
2017-05-09T12:41:26.254Z,27.32
2017-05-09T12:42:25.970Z,27.36
2017-05-09T12:43:26.323Z,27.57
2017-05-09T12:44:26.036Z,27.82
2017-05-09T12:45:26.376Z,27.92
2017-05-09T12:46:26.409Z,28.02
2017-05-09T12:47:26.125Z,28.27
2017-05-09T12:48:26.476Z,28.33
2017-05-09T12:49:26.187Z,28.54
2017-05-09T12:50:26.541Z,28.54
2017-05-09T12:51:26.259Z,28.43
2017-05-09T12:52:26.589Z,28.49
2017-05-09T12:53:26.312Z,28.43
2017-05-09T12:54:26.352Z,28.4
2017-05-09T12:55:26.683Z,28.37
2017-05-09T12:56:26.725Z,28.14
2017-05-09T12:57:26.448Z,27.97
2017-05-09T12:58:26.787Z,27.9
2017-05-09T12:59:26.823Z,27.81
2017-05-09T13:00:26.851Z,27.81
2017-05-09T13:01:26.574Z,27.62